Aviation Digital Data Service (ADDS)

Output produced by METARs form (2239 UTC 30 March 2017)
found at http://www.aviationweather.gov/adds/metars/
 
WBGB 302200Z 14004KT 9999 -RA FEW003 SCT016 OVC140 24/24 Q1012
TAF WBGB 301700Z 3018/3118 13005KT 9999 FEW016 SCT150 BKN300 
     TEMPO 3018/3022 4000 RA SCT014 FEW015CB BKN150
       
WMKB 302200Z 08003KT 8000 FEW025 SCT140 BKN280 25/25 Q1010 NOSIG
TAF WMKB 301700Z 3018/3118 08005KT 8000 FEW020 SCT140 BKN270 
     TEMPO 3110/3114 5000 -TSRA FEW017CB 
     TEMPO 3115/3117 7000 -RA FEW010 FEW017CB
       
WMKE 302200Z AUTO 00000KT //// // 25/24 Q1011
TAF WMKE 301700Z 3018/3118 02005KT 9999 FEW017CB SCT020 BKN280 
     TEMPO 3018/3022 4000 FEW015CB SCT018
       
TAF WMAP 301700Z 3018/3118 02005KT 9999 FEW018 SCT140 BKN260 
     TEMPO 3107/3111 4000 TSRA FEW015CB SCT018
       
WBKK 302230Z 12003KT 9999 FEW014 SCT140 BKN270 25/23 Q1011 NOSIG
TAF WBKK 301700Z 3018/3118 12005KT 9999 FEW014 
     PROB40 
     TEMPO 3106/3110 5000 TSRA FEW013 FEW016CB SCT035
       
WMKK 302230Z 00000KT 9999 TS FEW017CB BKN280 25/24 Q1012 NOSIG
TAF WMKK 301700Z 3018/0100 02005KT 9999 FEW030 SCT140 BKN280 
     TEMPO 3107/3111 4000 TSRA FEW015CB SCT018
       
WMKD 302200Z 00000KT 8000 -RA FEW006 BKN260 24/23 Q1011 BECMG NSW
WBGG 302230Z 11003KT 9999 SCT020 BKN150 24/23 Q1012 NOSIG
TAF WBGG 301700Z 3018/3118 28005KT 9999 FEW020 SCT150 BKN300 
     TEMPO 3106/3110 4000 TSRA FEW015CB SCT020 BKN150
       
WBKL 302200Z 21002KT 9999 FEW010 BKN130 BKN290 25/24 Q1011 RERA
TAF WBKL 301700Z 3018/3118 10005KT 9999 FEW012 SCT140 BKN290 
     TEMPO 3018/3022 4000 TSRA FEW010 FEW013CB SCT035
       
WMKL 302200Z 07003KT 9999 FEW026 SCT140 BKN280 25/25 Q1011
TAF WMKL 301700Z 3018/3118 05005KT 9999 FEW017CB SCT020 BKN260 
     TEMPO 3110/3114 4000 TSRA FEW015CB SCT018
       
WMKM 302200Z 06002KT 9999 FEW017CB SCT140 BKN270 24/23 Q1012
TAF WMKM 301700Z 3018/3118 02005KT 9999 FEW018 SCT160 BKN270 
     TEMPO 3107/3111 4000 TSRA FEW015CB SCT018
       
WBGR 302200Z 12002KT 9999 FEW003 SCT014 BKN150 24/23 Q1012
TAF WBGR 301700Z 3018/3118 22007KT 9999 FEW016 SCT150 BKN300 
     TEMPO 3105/3109 4000 TSRA SCT014 FEW015CB BKN150
       
WBGB 302200Z 14004KT 9999 -RA FEW003 SCT016 OVC140 24/24 Q1012
TAF WBGB 301700Z 3018/3118 13005KT 9999 FEW016 SCT150 BKN300 
     TEMPO 3018/3022 4000 RA SCT014 FEW015CB BKN150
       
WBGG 302230Z 11003KT 9999 SCT020 BKN150 24/23 Q1012 NOSIG
TAF WBGG 301700Z 3018/3118 28005KT 9999 FEW020 SCT150 BKN300 
     TEMPO 3106/3110 4000 TSRA FEW015CB SCT020 BKN150
       
WBGR 302200Z 12002KT 9999 FEW003 SCT014 BKN150 24/23 Q1012
TAF WBGR 301700Z 3018/3118 22007KT 9999 FEW016 SCT150 BKN300 
     TEMPO 3105/3109 4000 TSRA SCT014 FEW015CB BKN150
       
WBGS 302200Z 15004KT 9999 SCT018 BKN150 24/23 Q1012
TAF WBGS 301700Z 3018/3118 15005KT 9999 FEW018 SCT150 BKN300 
     TEMPO 3023/3103 4000 RA FEW015CB SCT018 BKN150
       
WBGY 302200Z 12001KT 9999 FEW001 BKN150 24/24 Q1012
WBKK 302230Z 12003KT 9999 FEW014 SCT140 BKN270 25/23 Q1011 NOSIG
TAF WBKK 301700Z 3018/3118 12005KT 9999 FEW014 
     PROB40 
     TEMPO 3106/3110 5000 TSRA FEW013 FEW016CB SCT035
       
WBKL 302200Z 21002KT 9999 FEW010 BKN130 BKN290 25/24 Q1011 RERA
TAF WBKL 301700Z 3018/3118 10005KT 9999 FEW012 SCT140 BKN290 
     TEMPO 3018/3022 4000 TSRA FEW010 FEW013CB SCT035
       
WBKS 302200Z 25003KT 9000 SCT015 BKN270 25/24 Q1011
TAF WBKS 301700Z 3018/3118 23005KT 9999 SCT015 FEW016CB 
     TEMPO 3018/3022 5000 RA SCT010 FEW016CB SCT040
       
WBKT 302200Z 00000KT 9999 FEW013 SCT140 BKN270 24/24 Q1012
WBKW 302200Z 28001KT 9999 FEW017 BKN280 25/23 Q1012
TAF WBKW 301700Z 3018/3118 33005KT 9999 FEW017 
     TEMPO 3019/3023 5000 TSRA FEW010 FEW016CB SCT035
       
WBSB 302230Z 18005KT 9999 -SHRA FEW004 SCT020 BKN140 25/24 Q1012 TEMPO 8000-SHRA
TAF WBSB 301650Z 3018/0100 20004KT 9999 FEW005 FEW015CB 
     BECMG 3100/3102 30008KT FEW015 
     BECMG 3104/3106 SCT016 FEW017CB
       
WMKP 302230Z 36002KT 8000 FEW025 SCT140 BKN270 26/24 Q1011 NOSIG
TAF WMKP 301700Z 3018/3118 02005KT 9000 FEW020 SCT140 BKN270 
     TEMPO 3108/3112 5000 TSRA FEW010 FEW017CB SCT023 BKN260
       
TAF WMBT 301700Z 3018/3118 35008KT 9000 FEW010 SCT140 BKN260 
     PROB30 
     TEMPO 3018/3022 6000 FEW015CB SCT018
       
WBKS 302200Z 25003KT 9000 SCT015 BKN270 25/24 Q1011
TAF WBKS 301700Z 3018/3118 23005KT 9999 SCT015 FEW016CB 
     TEMPO 3018/3022 5000 RA SCT010 FEW016CB SCT040
       
WBGS 302200Z 15004KT 9999 SCT018 BKN150 24/23 Q1012
TAF WBGS 301700Z 3018/3118 15005KT 9999 FEW018 SCT150 BKN300 
     TEMPO 3023/3103 4000 RA FEW015CB SCT018 BKN150
       
WMSA 302200Z 00000KT 7000 FEW005 FEW017CB SCT140 BKN280 26/24 Q1012
TAF WMSA 301700Z 3018/3118 31005KT 9000 FEW026 SCT140 BKN280 
     TEMPO 3107/3111 4000 TSRA FEW015CB SCT018
       
WMKA 302200Z 06001KT 9999 FEW030 BKN300 25/24 Q1011
TAF WMKA 301700Z 3018/3118 01005KT 9999 FEW030 BKN280 
     TEMPO 3018/3022 4000 FEW015CB SCT018
       
WMKI 302100Z 02003KT 9999 FEW030 SCT150 BKN280 25/24 Q1011
TAF WMKI 301700Z 3018/3118 04005KT 9999 FEW030 SCT150 BKN280 
     TEMPO 3107/3111 4000 TSRA FEW015CB SCT018
       
WMKJ 302200Z 29001KT 4000 BR FEW007 SCT140 BKN280 24/23 Q1011
TAF WMKJ 301700Z 3018/3118 04005KT 9999 FEW022 SCT140 BKN280 
     TEMPO 3106/3110 4000 TSRA FEW015CB SCT018
       
WMKC 302200Z 20002KT 9999 FEW020 BKN220 25/24 Q1011
TAF WMKC 301700Z 3018/3118 15005KT 9999 FEW017CB SCT020 BKN220 
     TEMPO 3018/3022 4000 FEW015CB SCT018
       
WMKN 302200Z 19003KT 9999 FEW022 BKN300 25/24 Q1011
TAF WMKN 301700Z 3018/3118 05005KT 9999 FEW017CB SCT020 BKN300 
     TEMPO 3018/3022 4000 FEW015CB SCT018
       
WBKW 302200Z 28001KT 9999 FEW017 BKN280 25/23 Q1012
TAF WBKW 301700Z 3018/3118 33005KT 9999 FEW017 
     TEMPO 3019/3023 5000 TSRA FEW010 FEW016CB SCT035